Tiempo atmosférico en la estación meteorológica de Colunga, Asturias (35 m.)



Fecha
DESCASC
Temp. máxima en grados centígrados (hora)
DESCASC
Temp. mínima en grados centígrados (hora)
DESCASC
Temp. media en grados centígrados
DESCASC
Racha de viento máxima en m/sg (hora)
DESCASC
Velocidad máxima media en intervalos de 10 minutos(hora)
DESCASC
Precipitaciones diarias en mm
DESCASC
Precipitaciones de 00:00 a 06:00 en mm
DESCASC
Precipitaciones de 06:00 a 12:00 en mm
DESCASC
Precipitaciones de 12:00 a 18:00 en mm
DESCASC
Precipitaciones de 18:00 a 24:00 en mm
DESCASC
04-03-2021 14.6 (13:50) 5.1 (07:30) 9.9 8.33 (18:40) 5.28 (18:40) 0 0 0 0 0
03-03-2021 14.8 (13:40) 6.9 (08:20) 10.9 5.83 (18:10) 3.61 (18:10) 0 0 0 0 0
02-03-2021 15 (13:30) 8 (06:00) 11.5 6.39 (03:00) 3.61 (00:40) 0 0 0 0 0
01-03-2021 18.4 (16:50) 6.9 (06:00) 12.6 8.61 (14:30) 5.28 (14:30) 0 0 0 0 0
28-02-2021 12.5 (15:00) 4.3 (00:00) 8.4 11.11 (18:50) 7.22 (18:50) 0 0 0 0 0
27-02-2021 12.1 (00:00) 9.6 (00:00) 10.9 13.06 (09:40) 8.61 (09:40) 0 0 0 0 0
26-02-2021 13.4 (14:50) 10.7 (00:00) 12 10.28 (19:10) 6.39 (18:50) 1.2 1 0.2 0 0
25-02-2021 14.8 (00:00) 10 (00:00) 12.4 8.06 (00:10) 4.72 (00:10) 6 0 1.6 0.4 4
24-02-2021 20.8 (12:50) 6.9 (00:00) 13.8 10 (14:20) 4.72 (14:20) 0 0 0 0 0
23-02-2021 21.4 (16:30) 1.3 (00:00) 11.3 4.72 (00:20) 2.78 (12:40) 0 0 0 0 0
22-02-2021 14.3 (13:00) 6 (00:00) 10.2 8.33 (19:40) 5.28 (19:40) 0.4 0.4 0 0 0
21-02-2021 12.6 (00:40) 7.2 (00:00) 9.9 9.44 (13:50) 5 (13:10) 10.2 0 0 5.8 4.4
20-02-2021 22 (15:00) 12.5 (00:00) 17.3 13.33 (17:40) 8.33 (18:20) 0 0 0 0 0
19-02-2021 16.7 (13:50) 5.4 (00:00) 11.1 7.22 (21:10) 3.33 (01:30) 0 0 0 0 0
18-02-2021 13.8 (14:20) 7 (00:00) 10.4 9.17 (04:50) 5 (09:00) 2 0 1.6 0.4 0
17-02-2021 13.6 (11:50) 5 (00:00) 9.3 4.72 (20:50) 3.06 (20:50) 0 0 0 0 0
16-02-2021 16.8 (16:00) 8.3 (00:00) 12.5 15.28 (09:50) 6.39 (10:00) 0 0 0 0 0
15-02-2021 22.1 (15:10) 8.3 (00:00) 15.2 6.39 (16:00) 3.89 (16:40) 0 0 0 0 0
14-02-2021 17.6 (16:20) 6.4 (00:00) 12 7.5 (22:30) 3.61 (04:20) 0 0 0 0 0
13-02-2021 15.1 (13:40) 7.1 (00:00) 11.1 6.11 (09:10) 3.89 (09:10) 1.6 0 1.6 0 0
12-02-2021 15.6 (15:00) 8.4 (00:00) 12 9.72 (13:40) 5 (13:40) 13.6 9.4 4.2 0 0
11-02-2021 15.1 (14:50) 7.3 (00:00) 11.2 4.17 (20:20) 2.5 (20:30) 2 1 0.2 0.4 0.4
10-02-2021 15 (15:10) 7.3 (00:00) 11.2 13.06 (08:00) 6.67 (10:50) 3.8 3.8 0 0 0
09-02-2021 16.4 (16:50) 8 (00:00) 12.2 18.89 (11:30) 8.33 (11:50) 3.4 1 2.4 0 0
08-02-2021 15.9 (13:20) 7.6 (00:00) 11.7 7.78 (13:30) 3.61 (17:10) 1 1 0 0 0
07-02-2021 10.9 (13:00) 5.5 (00:00) 8.2 5.28 (04:20) 3.06 (23:40) 4.2 0 0 2.8 1.4
06-02-2021 10.2 (01:10) 5.8 (00:00) 8 11.11 (03:00) 5.83 (00:40) 22.2 3.8 11.6 5.8 1
05-02-2021 10.6 (16:00) 8.4 (00:00) 9.5 13.06 (20:40) 6.67 (20:40) 37.6 0.6 9 14.2 13.8
04-02-2021 12.9 (13:10) 7 (00:00) 9.9 4.72 (16:50) 3.33 (07:20) 0 0 0 0 0
03-02-2021 15.7 (12:30) 9 (00:00) 12.3 5.83 (17:30) 3.33 (01:30) 0.2 0 0.2 0 0

Gráficas

Temp. máximas Temp. mínimas Temp. medias Precipitaciones Rachas de viento máximas Velocidades máximas media en intervalos de 10 minutos

Datos horarios

Fecha y hora oficial Temperatura (ºC) Velocidad del viento (km/h) Dirección del viento Racha (km/h) Dirección de racha Precipitación (mm) Presión (hPa) Tendencia (hPa) Humedad (%)
2021-03-04 23:00:00 12.2 11 Este 22 Este 0 -- -- 98
2021-03-04 22:00:00 11.8 14 Este 23 Este 0 -- -- 98
2021-03-04 21:00:00 11.6 11 Este 26 Nordeste 0 -- -- 98
2021-03-04 20:00:00 11.9 14 Este 26 Este 0 -- -- 97
2021-03-04 19:00:00 12.2 17 Este 30 Este 0 -- -- 96
2021-03-04 18:00:00 12.8 17 Este 28 Este 0 -- -- 95
2021-03-04 17:00:00 14 15 Este 25 Este 0 -- -- 93
2021-03-04 16:00:00 13.6 15 Este 27 Nordeste 0 -- -- 94
2021-03-04 15:00:00 12.6 15 Este 27 Este 0 -- -- 95
2021-03-04 14:00:00 14.5 14 Este 26 Este 0 -- -- 91
2021-03-04 13:00:00 14.3 12 Este 21 Este 0 -- -- 90
2021-03-04 12:00:00 13.4 10 Nordeste 17 Este 0 -- -- 95
2021-03-04 11:00:00 11.9 8 Nordeste 10 Nordeste 0 -- -- 100
2021-03-04 10:00:00 9.4 0 Calma 8 Sudoeste 0 -- -- 100
2021-03-04 09:00:00 6.5 4 Sudoeste 8 Sudoeste 0 -- -- 100
2021-03-04 08:00:00 5.2 4 Sudoeste 9 Sudoeste 0 -- -- 100
2021-03-04 07:00:00 6.3 3 Oeste 10 Sudoeste 0 -- -- 100
2021-03-04 06:00:00 6.7 8 Sudoeste 11 Oeste 0 -- -- 100
2021-03-04 05:00:00 6.9 8 Sudoeste 11 Sudoeste 0 -- -- 100
2021-03-04 04:00:00 7.5 10 Sudoeste 14 Sudoeste 0 -- -- 100
2021-03-04 03:00:00 8.5 8 Sudoeste 14 Sudoeste 0 -- -- 100
2021-03-04 02:00:00 8.6 5 Sudoeste 14 Oeste 0 -- -- 99
2021-03-04 01:00:00 8.7 9 Sudoeste 13 Oeste 0 -- -- 100
2021-03-04 00:00:00 9.6 8 Oeste 13 Sudoeste 0 -- -- 100
2021-03-03 23:00:00 9.3 5 Sudoeste 10 Oeste 0 -- -- 99
2021-03-03 22:00:00 10.3 0 Calma 9 Nordeste 0 -- -- 98
2021-03-03 21:00:00 12 4 Este 18 Este 0 -- -- 98
2021-03-03 20:00:00 12.3 9 Este 18 Nordeste 0 -- -- 97
2021-03-03 19:00:00 12.6 10 Nordeste 21 Este 0 -- -- 94
2021-03-03 18:00:00 13.5 13 Este 19 Nordeste 0 -- -- 91
2021-03-03 17:00:00 13.8 8 Este 17 Este 0 -- -- 90
2021-03-03 16:00:00 14.2 10 Nordeste 18 Este 0 -- -- 87
2021-03-03 15:00:00 14.7 10 Nordeste 16 Este 0 -- -- 86
2021-03-03 14:00:00 14.7 8 Nordeste 13 Nordeste 0 -- -- 85
2021-03-03 13:00:00 14.5 7 Nordeste 14 Nordeste 0 -- -- 82
2021-03-03 12:00:00 13.8 6 Nordeste 11 Nordeste 0 -- -- 79
2021-03-03 11:00:00 13.6 4 Nordeste 9 Sudoeste 0 -- -- 79
2021-03-03 10:00:00 11.1 6 Sudoeste 12 Sudoeste 0 -- -- 95
2021-03-03 09:00:00 8.3 7 Sudoeste 13 Oeste 0 -- -- 98
2021-03-03 08:00:00 7.4 0 Calma 14 Oeste 0 -- -- 96
2021-03-03 07:00:00 7.3 5 Sudoeste 12 Oeste 0 -- -- 96
2021-03-03 06:00:00 8.1 4 Sudoeste 15 Sudoeste 0 -- -- 96
2021-03-03 05:00:00 8.1 9 Sudoeste 15 Sudoeste 0 -- -- 97
2021-03-03 04:00:00 8 4 Sudoeste 13 Sudoeste 0 -- -- 97
2021-03-03 03:00:00 7.8 6 Sudoeste 10 Sudoeste 0 -- -- 97
2021-03-03 02:00:00 8.8 3 Sudoeste 10 Sudoeste 0 -- -- 96
2021-03-03 01:00:00 9.3 0 Calma 9 Sudoeste 0 -- -- 96
2021-03-03 00:00:00 9.7 6 Oeste 9 Sudoeste 0 -- -- 94
2021-03-02 23:00:00 10.7 2 Sudoeste 8 Nordeste 0 -- -- 89
2021-03-02 22:00:00 12.6 5 Nordeste 17 Este 0 -- -- 83
2021-03-02 21:00:00 12.6 7 Este 14 Este 0 -- -- 84
2021-03-02 20:00:00 12.5 5 Este 10 Sudeste 0 -- -- 88
2021-03-02 19:00:00 12.6 2 Este 5 Sudeste 0 -- -- 87
2021-03-02 18:00:00 13.2 3 Este 8 Este 0 -- -- 88
2021-03-02 17:00:00 13.4 4 Este 9 Este 0 -- -- 89
2021-03-02 16:00:00 13.2 3 Norte 9 Norte 0 -- -- 91
2021-03-02 15:00:00 14.2 7 Norte 12 Norte 0 -- -- 89
2021-03-02 14:00:00 13.9 6 Norte 12 Norte 0 -- -- 88
2021-03-02 13:00:00 14.6 7 Norte 12 Nordeste 0 -- -- 89
2021-03-02 12:00:00 12.9 2 Noroeste 5 Noroeste 0 -- -- 91
2021-03-02 11:00:00 12.8 0 Calma 8 Sur 0 -- -- 88
2021-03-02 10:00:00 12 3 Sudoeste 9 Sudoeste 0 -- -- 92
2021-03-02 09:00:00 9.7 4 Oeste 13 Oeste 0 -- -- 93
2021-03-02 08:00:00 10.1 8 Oeste 18 Oeste 0 -- -- 92
2021-03-02 07:00:00 9.3 9 Oeste 14 Oeste 0 -- -- 95
2021-03-02 06:00:00 8 9 Sudoeste 15 Sudoeste 0 -- -- 95
2021-03-02 05:00:00 8.8 6 Sudoeste 11 Sudoeste 0 -- -- 93
2021-03-02 04:00:00 8.1 4 Oeste 20 Norte 0 -- -- 91
2021-03-02 03:00:00 11.8 12 Noroeste 23 Noroeste 0 -- -- 85
2021-03-02 02:00:00 10.6 9 Sudoeste 19 Sudoeste 0 -- -- 86
2021-03-02 01:00:00 11.4 10 Sudoeste 18 Oeste 0 -- -- 84
2021-03-02 00:00:00 11 6 Sudoeste 16 Sudoeste 0 -- -- 88
2021-03-01 23:00:00 11.6 5 Oeste 19 Sudoeste 0 -- -- 84
2021-03-01 22:00:00 11.9 6 Oeste 16 Oeste 0 -- -- 84
2021-03-01 21:00:00 12.6 10 Sudoeste 19 Oeste 0 -- -- 80
2021-03-01 20:00:00 12.6 7 Oeste 11 Sudoeste 0 -- -- 75
2021-03-01 19:00:00 13.7 5 Nordeste 15 Nordeste 0 -- -- 76
2021-03-01 18:00:00 13.5 10 Norte 23 Este 0 -- -- 78
2021-03-01 17:00:00 18.1 14 Sudeste 28 Sur 0 -- -- 51
2021-03-01 16:00:00 14.3 8 Norte 28 Este 0 -- -- 70
2021-03-01 15:00:00 16.1 15 Este 31 Este 0 -- -- 67
2021-03-01 14:00:00 16.7 14 Este 27 Este 0 -- -- 67
2021-03-01 13:00:00 14.4 12 Norte 23 Norte 0 -- -- 75
2021-03-01 12:00:00 14.9 10 Este 22 Este 0 -- -- 67
2021-03-01 11:00:00 12.4 8 Oeste 15 Oeste 0 -- -- 75
2021-03-01 10:00:00 11 9 Oeste 22 Sudoeste 0 -- -- 84
2021-03-01 09:00:00 9.5 6 Oeste 16 Nordeste 0 -- -- 91
2021-03-01 08:00:00 8 9 Oeste 20 Oeste 0 -- -- 95
2021-03-01 07:00:00 7.8 9 Sudoeste 15 Oeste 0 -- -- 96
2021-03-01 06:00:00 6.9 9 Sudoeste 13 Sudoeste 0 -- -- 95
2021-03-01 05:00:00 7.2 6 Oeste 14 Sudoeste 0 -- -- 94
2021-03-01 04:00:00 8 9 Oeste 17 Oeste 0 -- -- 93
2021-03-01 03:00:00 7.8 5 Sudoeste 16 Oeste 0 -- -- 95
2021-03-01 02:00:00 7.8 7 Sudoeste 15 Oeste 0 -- -- 95
2021-03-01 01:00:00 8 8 Sudoeste 13 Oeste 0 -- -- 94
2021-03-01 00:00:00 8.6 6 Sudoeste 10 Oeste 0 -- -- 93
2021-02-28 23:00:00 10.9 5 Este 23 Este 0 -- -- 90
2021-02-28 22:00:00 10.9 12 Este 29 Este 0 -- -- 89
2021-02-28 21:00:00 11 13 Este 34 Este 0 -- -- 90
2021-02-28 20:00:00 11 17 Este 39 Este 0 -- -- 88
2021-02-28 19:00:00 11 23 Este 40 Este 0 -- -- 87
2021-02-28 18:00:00 10.9 21 Este 36 Nordeste 0 -- -- 84
2021-02-28 17:00:00 11.1 23 Este 36 Este 0 -- -- 81
2021-02-28 16:00:00 11.2 19 Este 33 Este 0 -- -- 78
2021-02-28 15:00:00 12.5 20 Este 32 Este 0 -- -- 75
2021-02-28 14:00:00 11.2 17 Este 30 Este 0 -- -- 80
2021-02-28 13:00:00 11.9 19 Este 30 Este 0 -- -- 78
2021-02-28 12:00:00 12.2 12 Este 18 Este 0 -- -- 77
2021-02-28 11:00:00 10.3 9 Este 14 Este 0 -- -- 85
2021-02-28 10:00:00 7.4 0 Calma 6 Sudoeste 0 -- -- 97
2021-02-28 09:00:00 6.2 3 Sudoeste 6 Oeste 0 -- -- 96
2021-02-28 08:00:00 5.6 3 Sudoeste 8 Oeste 0 -- -- 95
2021-02-28 07:00:00 5.8 6 Sudoeste 13 Sudoeste 0 -- -- 95
2021-02-28 06:00:00 5.1 10 Sudoeste 14 Oeste 0 -- -- 96
2021-02-28 05:00:00 4.8 9 Sudoeste 14 Sudoeste 0 -- -- 95
2021-02-28 04:00:00 4.9 7 Sudoeste 10 Oeste 0 -- -- 93
2021-02-28 03:00:00 6.4 0 Calma 10 Este 0 -- -- 86
2021-02-28 02:00:00 8.5 5 Este 16 Este 0 -- -- 83
2021-02-28 01:00:00 9.1 12 Este 20 Este 0 -- -- 82
2021-02-28 00:00:00 9.6 11 Este 24 Este 0 -- -- 81
2021-02-27 23:00:00 9.7 13 Este 22 Este 0 -- -- 82
2021-02-27 22:00:00 9.6 9 Este 21 Sudeste 0 -- -- 82
2021-02-27 21:00:00 9.7 8 Este 18 Este 0 -- -- 82
2021-02-27 20:00:00 10.1 14 Este 28 Este 0 -- -- 81
2021-02-27 19:00:00 10.3 17 Este 32 Este 0 -- -- 81
2021-02-27 18:00:00 10.5 20 Este 32 Este 0 -- -- 81
2021-02-27 17:00:00 10.8 19 Este 35 Este 0 -- -- 81
2021-02-27 16:00:00 11.1 22 Este 36 Este 0 -- -- 81
2021-02-27 15:00:00 11.1 20 Este 38 Este 0 -- -- 83
2021-02-27 14:00:00 11.3 22 Este 40 Este 0 -- -- 83
2021-02-27 13:00:00 11.5 24 Este 42 Este 0 -- -- 83
2021-02-27 12:00:00 11.2 29 Este 47 Este 0 -- -- 84
2021-02-27 11:00:00 11.2 30 Este 45 Este 0 -- -- 86
2021-02-27 10:00:00 11.4 26 Este 47 Este 0 -- -- 90
2021-02-27 09:00:00 11.5 28 Este 45 Este 0 -- -- 92
2021-02-27 08:00:00 11.7 26 Este 42 Este 0 -- -- 92
2021-02-27 07:00:00 11.7 16 Este 26 Nordeste 0 -- -- 92
2021-02-27 06:00:00 11.6 13 Este 23 Este 0 -- -- 92
2021-02-27 05:00:00 11.7 13 Este 23 Este 0 -- -- 92
2021-02-27 04:00:00 11.6 15 Este 24 Este 0 -- -- 93
2021-02-27 03:00:00 11.9 14 Este 27 Este 0 -- -- 93
2021-02-27 02:00:00 12 19 Este 32 Este 0 -- -- 93
2021-02-27 01:00:00 12 20 Este 35 Este 0 -- -- 94
2021-02-27 00:00:00 12.1 18 Este 33 Este 0 -- -- 95
2021-02-26 23:00:00 12.1 22 Este 34 Este 0 -- -- 95
2021-02-26 22:00:00 12.1 19 Este 37 Este 0 -- -- 95
2021-02-26 21:00:00 11.9 20 Este 35 Este 0 -- -- 95
2021-02-26 20:00:00 11.9 21 Este 37 Este 0 -- -- 95
2021-02-26 19:00:00 11.9 22 Este 36 Este 0 -- -- 94
2021-02-26 18:00:00 12.1 20 Este 31 Nordeste 0 -- -- 93
2021-02-26 17:00:00 12.4 17 Este 29 Este 0 -- -- 91
2021-02-26 16:00:00 12.6 13 Este 27 Este 0 -- -- 91
2021-02-26 15:00:00 13.4 15 Este 25 Este 0 -- -- 90
2021-02-26 14:00:00 13.1 13 Este 23 Este 0 -- -- 92
2021-02-26 13:00:00 12.5 12 Este 22 Este 0 -- -- 95
2021-02-26 12:00:00 11.8 13 Este 21 Este 0 -- -- 99
2021-02-26 11:00:00 11.3 8 Este 24 Este 0.2 -- -- 100
2021-02-26 10:00:00 11.3 12 Este 21 Este 0 -- -- 100
2021-02-26 09:00:00 11.2 12 Este 19 Este 0 -- -- 100
2021-02-26 08:00:00 11.3 10 Este 18 Este 0 -- -- 100
2021-02-26 07:00:00 11.2 9 Este 15 Este 0 -- -- 100
2021-02-26 06:00:00 11.2 6 Este 11 Este 0 -- -- 100
2021-02-26 05:00:00 11 8 Este 15 Este 0 -- -- 100
2021-02-26 04:00:00 10.9 6 Este 16 Este 0.2 -- -- 100
2021-02-26 03:00:00 11.1 9 Este 17 Este 0 -- -- 100
2021-02-26 02:00:00 11.1 10 Este 16 Este 0 -- -- 100
2021-02-26 01:00:00 11 5 Este 10 Nordeste 0.8 -- -- 100
2021-02-26 00:00:00 10.8 0 Calma 3 Oeste 1.8 -- -- 100
2021-02-25 23:00:00 10.7 2 Sudoeste 5 Sudoeste 0.2 -- -- 100
2021-02-25 22:00:00 10.7 2 Oeste 5 Sudoeste 0.8 -- -- 100
2021-02-25 21:00:00 10.7 4 Sudoeste 6 Sudoeste 0.2 -- -- 100
2021-02-25 20:00:00 10.7 4 Sudoeste 6 Sudoeste 0.8 -- -- 99
2021-02-25 19:00:00 11 2 Sudeste 4 Sudoeste 0.2 -- -- 99
2021-02-25 18:00:00 11.1 2 Sudoeste 6 Oeste 0 -- -- 98
2021-02-25 17:00:00 11 4 Sudoeste 8 Oeste 0.2 -- -- 98
2021-02-25 16:00:00 11 4 Sudoeste 8 Sudoeste 0 -- -- 97
2021-02-25 15:00:00 11.1 2 Oeste 4 Nordeste 0.2 -- -- 96
2021-02-25 14:00:00 11.3 2 Nordeste 5 Sudoeste 0 -- -- 93
2021-02-25 13:00:00 11.6 4 Sudoeste 10 Sudoeste 0 -- -- 92
2021-02-25 12:00:00 11.3 5 Oeste 10 Sudoeste 0 -- -- 95
2021-02-25 11:00:00 10.3 7 Oeste 14 Oeste 0.2 -- -- 97
2021-02-25 10:00:00 10 9 Oeste 18 Sudoeste 0.4 -- -- 96
2021-02-25 09:00:00 10.3 12 Sudoeste 22 Oeste 1 -- -- 94
2021-02-25 08:00:00 11.5 5 Sudoeste 12 Oeste 0 -- -- 92
2021-02-25 07:00:00 11.4 5 Sudoeste 9 Oeste 0 -- -- 92
2021-02-25 06:00:00 11.5 5 Oeste 11 Oeste 0 -- -- 91
2021-02-25 05:00:00 11.7 5 Oeste 9 Oeste 0 -- -- 91
2021-02-25 04:00:00 11.6 5 Oeste 7 Oeste 0 -- -- 91
2021-02-25 03:00:00 11.4 0 Calma 4 Sudoeste 0 -- -- 89
2021-02-25 02:00:00 12.7 3 Oeste 14 Oeste 0 -- -- 84
2021-02-25 01:00:00 13.4 8 Oeste 29 Noroeste 0 -- -- 78
2021-02-25 00:00:00 14.8 16 Oeste 31 Noroeste 0 -- -- 67
2021-02-24 23:00:00 13.4 9 Oeste 15 Oeste 0 -- -- 64
2021-02-24 22:00:00 12.9 10 Oeste 15 Oeste 0 -- -- 68
2021-02-24 21:00:00 12.2 9 Sudoeste 13 Sudoeste 0 -- -- 71
2021-02-24 20:00:00 12.5 3 Oeste 11 Sudoeste 0 -- -- 70
2021-02-24 19:00:00 13 4 Noroeste 10 Oeste 0 -- -- 64
2021-02-24 18:00:00 15.8 4 Este 12 Norte 0 -- -- 54
2021-02-24 17:00:00 16.3 6 Norte 18 Noroeste 0 -- -- 58
2021-02-24 16:00:00 17.2 10 Norte 28 Nordeste 0 -- -- 54
2021-02-24 15:00:00 17.1 8 Norte 36 Este 0 -- -- 52
2021-02-24 14:00:00 16.7 8 Norte 24 Este 0 -- -- 58
2021-02-24 13:00:00 20.6 7 Nordeste 20 Nordeste 0 -- -- 36
2021-02-24 12:00:00 20.2 7 Norte 11 Nordeste 0 -- -- 37
2021-02-24 11:00:00 18.6 5 Norte 13 Norte 0 -- -- 45
2021-02-24 10:00:00 14.5 3 Noroeste 17 Sudoeste 0 -- -- 57
2021-02-24 09:00:00 9.2 3 Norte 13 Sudoeste 0 -- -- 74
2021-02-24 08:00:00 7.3 3 Oeste 15 Sudoeste 0 -- -- 73
2021-02-24 07:00:00 7.9 3 Sudeste 15 Sudoeste 0 -- -- 71
2021-02-24 06:00:00 8.6 4 Noroeste 14 Sudoeste 0 -- -- 70
2021-02-24 05:00:00 8.4 4 Noroeste 13 Sudoeste 0 -- -- 72
2021-02-24 04:00:00 7.7 3 Noroeste 14 Sudoeste 0 -- -- 72
2021-02-24 03:00:00 7.5 0 Calma 9 Oeste 0 -- -- 73
2021-02-24 02:00:00 8.1 3 Oeste 5 Oeste 0 -- -- 72
2021-02-24 01:00:00 9.4 4 Oeste 7 Oeste 0 -- -- 66
2021-02-24 00:00:00 8.4 3 Noroeste 9 Oeste 0 -- -- 66
2021-02-23 23:00:00 8.9 2 Oeste 12 Sudoeste 0 -- -- 65
2021-02-23 22:00:00 10.3 3 Noroeste 11 Sudoeste 0 -- -- 60
2021-02-23 21:00:00 10.8 4 Sudoeste 14 Sur 0 -- -- 62
2021-02-23 20:00:00 12.2 7 Sudoeste 13 Sudoeste 0 -- -- 60
2021-02-23 19:00:00 14.8 0 Calma 9 Sudeste 0 -- -- 48
2021-02-23 18:00:00 19.6 3 Noroeste 14 Norte 0 -- -- 48
2021-02-23 17:00:00 21 5 Nordeste 13 Norte 0 -- -- 33
2021-02-23 16:00:00 21.2 6 Norte 12 Norte 0 -- -- 30
2021-02-23 15:00:00 20.7 8 Norte 13 Norte 0 -- -- 34
2021-02-23 14:00:00 19.9 5 Nordeste 12 Nordeste 0 -- -- 33
2021-02-23 13:00:00 17.4 8 Norte 14 Nordeste 0 -- -- 35
2021-02-23 12:00:00 16.2 7 Norte 11 Nordeste 0 -- -- 38
2021-02-23 11:00:00 14.4 3 Sur 10 Noroeste 0 -- -- 66
2021-02-23 10:00:00 7.9 2 Oeste 12 Sudoeste 0 -- -- 92
2021-02-23 09:00:00 3.3 3 Sudoeste 6 Oeste 0 -- -- 94
2021-02-23 08:00:00 2.4 4 Sudoeste 16 Oeste 0 -- -- 91
2021-02-23 07:00:00 1.6 5 Sudoeste 11 Oeste 0 -- -- 96
2021-02-23 06:00:00 2.3 4 Oeste 8 Oeste 0 -- -- 96
2021-02-23 05:00:00 2.9 9 Sudoeste 12 Oeste 0 -- -- 96
2021-02-23 04:00:00 2.6 3 Oeste 14 Sudoeste 0 -- -- 95
2021-02-23 03:00:00 3.8 6 Oeste 13 Sudoeste 0 -- -- 96
2021-02-23 02:00:00 4 4 Sudoeste 11 Sudoeste 0 -- -- 95
2021-02-23 01:00:00 5.4 4 Sudoeste 17 Oeste 0 -- -- 93
2021-02-23 00:00:00 6.1 9 Sudoeste 14 Oeste 0 -- -- 94
2021-02-22 23:00:00 6.2 11 Sudoeste 16 Oeste 0 -- -- 92
2021-02-22 22:00:00 6.8 9 Sudoeste 24 Este 0 -- -- 89
2021-02-22 21:00:00 9.6 10 Este 26 Este 0 -- -- 83
2021-02-22 20:00:00 10.3 15 Este 30 Este 0 -- -- 80
2021-02-22 19:00:00 11 17 Este 28 Este 0 -- -- 77
2021-02-22 18:00:00 12.4 13 Este 21 Este 0 -- -- 70
2021-02-22 17:00:00 13.3 10 Este 15 Nordeste 0 -- -- 65
2021-02-22 16:00:00 13.4 6 Nordeste 12 Nordeste 0 -- -- 63
2021-02-22 15:00:00 13.4 7 Nordeste 14 Nordeste 0 -- -- 63
2021-02-22 14:00:00 13.5 7 Norte 15 Nordeste 0 -- -- 64
2021-02-22 13:00:00 14.3 6 Noroeste 15 Oeste 0 -- -- 56
2021-02-22 12:00:00 13.1 9 Sudoeste 17 Sudoeste 0 -- -- 60
2021-02-22 11:00:00 11.2 6 Sudoeste 14 Oeste 0 -- -- 71
2021-02-22 10:00:00 8.7 8 Oeste 12 Sudoeste 0 -- -- 85
2021-02-22 09:00:00 8.3 7 Oeste 18 Oeste 0 -- -- 84
2021-02-22 08:00:00 8.2 9 Oeste 15 Sudoeste 0 -- -- 84
2021-02-22 07:00:00 8 8 Oeste 16 Oeste 0 -- -- 85
2021-02-22 06:00:00 8.1 10 Oeste 18 Oeste 0 -- -- 87
2021-02-22 05:00:00 8.3 10 Oeste 21 Sudoeste 0.4 -- -- 89
2021-02-22 04:00:00 8.6 10 Oeste 19 Oeste 0 -- -- 88
2021-02-22 03:00:00 8.7 11 Oeste 21 Oeste 0 -- -- 86
2021-02-22 02:00:00 8.4 12 Oeste 22 Sudoeste 0 -- -- 88
2021-02-22 01:00:00 8.2 10 Oeste 26 Oeste 0 -- -- 88
2021-02-22 00:00:00 8.1 13 Oeste 22 Sudoeste 0 -- -- 89
2021-02-21 23:00:00 7.8 11 Sudoeste 24 Sudoeste 0.2 -- -- 91
2021-02-21 22:00:00 7.2 10 Oeste 23 Oeste 0.8 -- -- 93
2021-02-21 21:00:00 7.5 12 Sudoeste 20 Sudoeste 0.8 -- -- 92
2021-02-21 20:00:00 7.7 10 Oeste 19 Sudoeste 1.6 -- -- 93
2021-02-21 19:00:00 7.8 9 Sudoeste 20 Oeste 1 -- -- 93
2021-02-21 18:00:00 8.1 8 Oeste 22 Sudoeste 1.8 -- -- 93
2021-02-21 17:00:00 8.2 13 Sudoeste 23 Sudoeste 1 -- -- 93
2021-02-21 16:00:00 9 10 Oeste 19 Sudoeste 0.4 -- -- 93
2021-02-21 15:00:00 8.8 10 Sudoeste 25 Sudoeste 1 -- -- 93
2021-02-21 14:00:00 8.7 16 Sudoeste 34 Oeste 1.4 -- -- 91
2021-02-21 13:00:00 10.4 16 Oeste 31 Sudoeste 0.2 -- -- 91
2021-02-21 12:00:00 11.9 10 Oeste 25 Oeste 0 -- -- 89
2021-02-21 11:00:00 12.5 8 Oeste 17 Oeste 0 -- -- 88
2021-02-21 10:00:00 11.6 5 Sudoeste 12 Sudoeste 0 -- -- 93
2021-02-21 09:00:00 10.8 5 Oeste 10 Oeste 0 -- -- 92
2021-02-21 08:00:00 11 4 Oeste 8 Norte 0 -- -- 90
2021-02-21 07:00:00 11.6 2 Noroeste 6 Sudoeste 0 -- -- 91
2021-02-21 06:00:00 11.5 3 Este 6 Este 0 -- -- 92
2021-02-21 05:00:00 11.8 3 Sudeste 13 Nordeste 0 -- -- 91
2021-02-21 04:00:00 12.2 8 Nordeste 15 Este 0 -- -- 93
2021-02-21 03:00:00 12.1 5 Este 9 Este 0 -- -- 94
2021-02-21 02:00:00 11.9 5 Nordeste 13 Este 0 -- -- 93
2021-02-21 01:00:00 12.5 7 Este 18 Este 0 -- -- 93
2021-02-21 00:00:00 12.5 9 Este 30 Este 0 -- -- 92
2021-02-20 23:00:00 13 8 Nordeste 22 Noroeste 0 -- -- 86
2021-02-20 22:00:00 16.9 9 Sur 35 Sur 0 -- -- 47
2021-02-20 21:00:00 18 26 Sur 44 Sur 0 -- -- 45
2021-02-20 20:00:00 17.9 20 Sur 41 Sudoeste 0 -- -- 45
2021-02-20 19:00:00 17.5 17 Sur 48 Sur 0 -- -- 46
2021-02-20 18:00:00 18.6 27 Sur 48 Sur 0 -- -- 43
2021-02-20 17:00:00 19.5 9 Oeste 40 Sudeste 0 -- -- 44
2021-02-20 16:00:00 20.1 18 Sudoeste 39 Sur 0 -- -- 41
2021-02-20 15:00:00 22 26 Sur 43 Sudoeste 0 -- -- 38
2021-02-20 14:00:00 21 8 Nordeste 19 Noroeste 0 -- -- 37
2021-02-20 13:00:00 21.1 10 Noroeste 19 Noroeste 0 -- -- 36
2021-02-20 12:00:00 19 10 Norte 17 Nordeste 0 -- -- 42
2021-02-20 11:00:00 15.7 8 Sudoeste 25 Sudeste 0 -- -- 60
2021-02-20 10:00:00 14.8 10 Sudoeste 30 Sur 0 -- -- 54
2021-02-20 09:00:00 17.4 12 Sur 40 Sur 0 -- -- 37
2021-02-20 08:00:00 18 17 Sur 40 Sudeste 0 -- -- 34
2021-02-20 07:00:00 18.1 18 Sur 37 Sur 0 -- -- 35
2021-02-20 06:00:00 16.4 9 Oeste 20 Noroeste 0 -- -- 44
2021-02-20 05:00:00 16 5 Sudoeste 23 Sudeste 0 -- -- 52
2021-02-20 04:00:00 16.9 8 Sur 19 Sudeste 0 -- -- 50
2021-02-20 03:00:00 14.9 7 Oeste 25 Sudoeste 0 -- -- 58
2021-02-20 02:00:00 17 9 Sur 28 Sudeste 0 -- -- 49
2021-02-20 01:00:00 16.9 19 Sur 37 Sudeste 0 -- -- 49
2021-02-20 00:00:00 15.9 9 Sur 21 Sur 0 -- -- 53
2021-02-19 23:00:00 15.1 3 Sudeste 18 Sur 0 -- -- 57
2021-02-19 22:00:00 16.5 8 Sudoeste 26 Sur 0 -- -- 50
2021-02-19 21:00:00 15.4 11 Sudoeste 18 Sudoeste 0 -- -- 55
2021-02-19 20:00:00 13.9 8 Oeste 16 Sudoeste 0 -- -- 68
2021-02-19 19:00:00 13.7 5 Oeste 10 Sudoeste 0 -- -- 76
2021-02-19 18:00:00 14.8 2 Norte 15 Sudeste 0 -- -- 67
2021-02-19 17:00:00 14.7 5 Noroeste 17 Sudeste 0 -- -- 75
2021-02-19 16:00:00 14.7 0 Calma 7 Este 0 -- -- 84
2021-02-19 15:00:00 15.9 5 Norte 13 Sudoeste 0 -- -- 74
2021-02-19 14:00:00 16.5 6 Sudoeste 18 Sudoeste 0 -- -- 66
2021-02-19 13:00:00 14.7 6 Sudoeste 23 Este 0 -- -- 75
2021-02-19 12:00:00 12.5 4 Sudoeste 9 Noroeste 0 -- -- 90
2021-02-19 11:00:00 10.5 2 Oeste 12 Sudoeste 0 -- -- 95
2021-02-19 10:00:00 8 6 Oeste 13 Sudoeste 0 -- -- 97
2021-02-19 09:00:00 6.5 4 Oeste 13 Oeste 0 -- -- 97
2021-02-19 08:00:00 6.5 5 Oeste 15 Oeste 0 -- -- 97
2021-02-19 07:00:00 6.1 9 Sudoeste 14 Sudoeste 0 -- -- 97
2021-02-19 06:00:00 5.4 4 Sudoeste 13 Sudoeste 0 -- -- 97
2021-02-19 05:00:00 5.5 8 Sudoeste 12 Sudoeste 0 -- -- 97
2021-02-19 04:00:00 6.2 7 Sudoeste 13 Oeste 0 -- -- 97
2021-02-19 03:00:00 6.6 9 Sudoeste 15 Sudoeste 0 -- -- 97
2021-02-19 02:00:00 7 11 Sudoeste 16 Oeste 0 -- -- 97
2021-02-19 01:00:00 7.2 10 Sudoeste 16 Oeste 0 -- -- 97
2021-02-19 00:00:00 7 10 Oeste 13 Sudoeste 0 -- -- 97
2021-02-18 23:00:00 7.5 8 Oeste 12 Oeste 0 -- -- 96
2021-02-18 22:00:00 8.1 7 Sudoeste 10 Oeste 0 -- -- 94
2021-02-18 21:00:00 9 5 Oeste 20 Este 0 -- -- 89
2021-02-18 20:00:00 11.1 14 Este 22 Este 0 -- -- 88
2021-02-18 19:00:00 11.3 7 Este 13 Este 0 -- -- 85
2021-02-18 18:00:00 12 8 Este 12 Este 0 -- -- 84
2021-02-18 17:00:00 12.3 5 Norte 12 Norte 0 -- -- 81
2021-02-18 16:00:00 13.2 2 Sur 11 Oeste 0 -- -- 77
2021-02-18 15:00:00 12.8 6 Noroeste 15 Norte 0 -- -- 75
2021-02-18 14:00:00 13 4 Sudoeste 20 Sudoeste 0.4 -- -- 85
2021-02-18 13:00:00 12.1 9 Sudoeste 24 Oeste 0 -- -- 82
2021-02-18 12:00:00 11.5 9 Sudoeste 23 Sudoeste 0 -- -- 89
2021-02-18 11:00:00 11.2 13 Oeste 26 Sudoeste 0 -- -- 93
2021-02-18 10:00:00 11 8 Oeste 24 Sudoeste 1.2 -- -- 94
2021-02-18 09:00:00 11.3 18 Oeste 33 Oeste 0.4 -- -- 89
2021-02-18 08:00:00 11 0 Calma 9 Noroeste 0 -- -- 90
2021-02-18 07:00:00 11.1 2 Oeste 6 Noroeste 0 -- -- 89
2021-02-18 06:00:00 12.3 4 Sudoeste 17 Oeste 0 -- -- 85
2021-02-18 05:00:00 13.2 14 Noroeste 33 Noroeste 0 -- -- 82
2021-02-18 04:00:00 10.3 7 Sudoeste 15 Oeste 0 -- -- 90
2021-02-18 03:00:00 9.9 6 Oeste 11 Sudoeste 0 -- -- 94
2021-02-18 02:00:00 9.3 2 Oeste 10 Sudoeste 0 -- -- 93
2021-02-18 01:00:00 10 3 Oeste 12 Sudoeste 0 -- -- 92
2021-02-18 00:00:00 10.1 7 Sudoeste 12 Norte 0 -- -- 91
2021-02-17 23:00:00 9.4 0 Calma 9 Sudoeste 0 -- -- 92
2021-02-17 22:00:00 10.1 4 Oeste 17 Sudoeste 0 -- -- 91
2021-02-17 21:00:00 11.1 7 Oeste 17 Sudoeste 0 -- -- 94
2021-02-17 20:00:00 10.3 5 Sudoeste 9 Oeste 0 -- -- 95
2021-02-17 19:00:00 11.4 3 Noroeste 9 Este 0 -- -- 92
2021-02-17 18:00:00 13 5 Este 11 Este 0 -- -- 89
2021-02-17 17:00:00 12.6 3 Este 6 Nordeste 0 -- -- 89
2021-02-17 16:00:00 12.7 3 Nordeste 5 Nordeste 0 -- -- 84
2021-02-17 15:00:00 13 4 Nordeste 9 Este 0 -- -- 81
2021-02-17 14:00:00 12.7 5 Nordeste 10 Nordeste 0 -- -- 84
2021-02-17 13:00:00 13.1 7 Nordeste 11 Nordeste 0 -- -- 86
2021-02-17 12:00:00 13.3 7 Nordeste 8 Nordeste 0 -- -- 84
2021-02-17 11:00:00 12.2 3 Este 8 Sudoeste 0 -- -- 86
2021-02-17 10:00:00 8.9 9 Sudoeste 14 Oeste 0 -- -- 92
2021-02-17 09:00:00 6.8 8 Sudoeste 14 Oeste 0 -- -- 95
2021-02-17 08:00:00 5.9 8 Sudoeste 12 Oeste 0 -- -- 96
2021-02-17 07:00:00 5.6 8 Sudoeste 12 Oeste 0 -- -- 98
2021-02-17 06:00:00 5.5 4 Sudoeste 13 Oeste 0 -- -- 95
2021-02-17 05:00:00 5.6 5 Sudoeste 10 Oeste 0 -- -- 94
2021-02-17 04:00:00 8.5 10 Oeste 14 Oeste 0 -- -- 96
2021-02-17 03:00:00 7.8 9 Oeste 13 Oeste 0 -- -- 96
2021-02-17 02:00:00 6.3 4 Sudoeste 13 Oeste 0 -- -- 94
2021-02-17 01:00:00 8.5 6 Sudoeste 15 Oeste 0 -- -- 93
2021-02-17 00:00:00 8.5 6 Sudoeste 12 Oeste 0 -- -- 95
2021-02-16 23:00:00 9 7 Sudoeste 15 Sudoeste 0 -- -- 95
2021-02-16 22:00:00 9.3 7 Oeste 12 Oeste 0 -- -- 96
2021-02-16 21:00:00 9.1 7 Oeste 10 Sudoeste 0 -- -- 96
2021-02-16 20:00:00 9 2 Oeste 4 Sudoeste 0 -- -- 94
2021-02-16 19:00:00 11.4 0 Calma 12 Este 0 -- -- 88
2021-02-16 18:00:00 13.9 4 Norte 15 Nordeste 0 -- -- 83
2021-02-16 17:00:00 14.6 8 Este 16 Este 0 -- -- 77
2021-02-16 16:00:00 16.8 5 Oeste 12 Sudoeste 0 -- -- 66
2021-02-16 15:00:00 14.8 10 Sudoeste 17 Sudoeste 0 -- -- 74
2021-02-16 14:00:00 13.8 10 Oeste 19 Sudoeste 0 -- -- 76
2021-02-16 13:00:00 13.2 11 Oeste 22 Sudoeste 0 -- -- 83
2021-02-16 12:00:00 12.5 13 Sudoeste 30 Oeste 0 -- -- 85
2021-02-16 11:00:00 12.5 15 Oeste 41 Oeste 0 -- -- 82
2021-02-16 10:00:00 12.6 23 Oeste 55 Oeste 0 -- -- 77
2021-02-16 09:00:00 10.5 9 Oeste 15 Sudoeste 0 -- -- 78
2021-02-16 08:00:00 9 3 Oeste 14 Oeste 0 -- -- 85
2021-02-16 07:00:00 9.6 6 Oeste 14 Sudoeste 0 -- -- 81
2021-02-16 06:00:00 10.1 4 Oeste 13 Oeste 0 -- -- 78
2021-02-16 05:00:00 10.8 8 Oeste 15 Sudoeste 0 -- -- 74
2021-02-16 04:00:00 13.5 8 Sudoeste 17 Sudoeste 0 -- -- 61
2021-02-16 03:00:00 11.4 5 Oeste 19 Sudoeste 0 -- -- 71
2021-02-16 02:00:00 10.1 4 Oeste 20 Sudoeste 0 -- -- 76
2021-02-16 01:00:00 11.4 5 Oeste 22 Sudoeste 0 -- -- 71
2021-02-16 00:00:00 10.2 3 Sudoeste 11 Oeste 0 -- -- 75
2021-02-15 23:00:00 12.4 10 Oeste 20 Sudoeste 0 -- -- 64
2021-02-15 22:00:00 11.7 7 Oeste 15 Oeste 0 -- -- 70
2021-02-15 21:00:00 13.1 4 Oeste 16 Sudoeste 0 -- -- 67
2021-02-15 20:00:00 15.5 12 Oeste 17 Sudoeste 0 -- -- 57
2021-02-15 19:00:00 15.2 3 Oeste 8 Nordeste 0 -- -- 60
2021-02-15 18:00:00 18.4 3 Oeste 18 Este 0 -- -- 54
2021-02-15 17:00:00 20.8 11 Este 23 Este 0 -- -- 35
2021-02-15 16:00:00 21.2 9 Este 23 Sudeste 0 -- -- 40
2021-02-15 15:00:00 21.8 3 Sudeste 8 Este 0 -- -- 43
2021-02-15 14:00:00 21.7 2 Norte 9 Norte 0 -- -- 39
2021-02-15 13:00:00 21.1 6 Norte 10 Nordeste 0 -- -- 38
2021-02-15 12:00:00 20.1 3 Norte 11 Oeste 0 -- -- 39
2021-02-15 11:00:00 14.8 4 Sudoeste 8 Sudoeste 0 -- -- 69
2021-02-15 10:00:00 11.2 3 Sudoeste 14 Sudoeste 0 -- -- 82
2021-02-15 09:00:00 9.9 8 Oeste 15 Sudoeste 0 -- -- 80
2021-02-15 08:00:00 8.6 3 Oeste 16 Sudoeste 0 -- -- 84
2021-02-15 07:00:00 9.9 2 Oeste 13 Sudoeste 0 -- -- 77
2021-02-15 06:00:00 10 3 Sudoeste 13 Sudoeste 0 -- -- 80
2021-02-15 05:00:00 12.2 11 Sudoeste 22 Sudoeste 0 -- -- 71
2021-02-15 04:00:00 12.4 8 Oeste 19 Oeste 0 -- -- 71
2021-02-15 03:00:00 11.2 4 Oeste 13 Sudoeste 0 -- -- 77
2021-02-15 02:00:00 12.4 4 Oeste 12 Sudoeste 0 -- -- 72
2021-02-15 01:00:00 14 7 Sudoeste 14 Oeste 0 -- -- 62
2021-02-15 00:00:00 15.5 5 Oeste 21 Sudoeste 0 -- -- 55
2021-02-14 23:00:00 15 6 Sudoeste 27 Oeste 0 -- -- 56
2021-02-14 22:00:00 16.7 9 Oeste 18 Sudoeste 0 -- -- 48
2021-02-14 21:00:00 15.5 7 Oeste 15 Oeste 0 -- -- 56
2021-02-14 20:00:00 13.7 8 Oeste 15 Oeste 0 -- -- 77
2021-02-14 19:00:00 13.8 4 Oeste 10 Oeste 0 -- -- 81
2021-02-14 18:00:00 16 3 Oeste 9 Sudoeste 0 -- -- 76
2021-02-14 17:00:00 17 2 Norte 10 Nordeste 0 -- -- 71
2021-02-14 16:00:00 17.5 4 Nordeste 9 Nordeste 0 -- -- 69
2021-02-14 15:00:00 15 3 Nordeste 9 Nordeste 0 -- -- 78
2021-02-14 14:00:00 14.6 6 Nordeste 9 Nordeste 0 -- -- 76
2021-02-14 13:00:00 14.9 4 Nordeste 9 Nordeste 0 -- -- 78
2021-02-14 12:00:00 15 5 Nordeste 10 Nordeste 0 -- -- 74
2021-02-14 11:00:00 13.1 4 Sudoeste 12 Oeste 0 -- -- 82
2021-02-14 10:00:00 11.9 9 Sudoeste 13 Sudoeste 0 -- -- 87
2021-02-14 09:00:00 7.8 8 Sudoeste 14 Oeste 0 -- -- 93
2021-02-14 08:00:00 6.4 0 Calma 11 Sudoeste 0 -- -- 94
2021-02-14 07:00:00 7 3 Oeste 10 Sudoeste 0 -- -- 93
2021-02-14 06:00:00 8.9 9 Oeste 15 Sudoeste 0 -- -- 88
2021-02-14 05:00:00 9.6 12 Sudoeste 18 Oeste 0 -- -- 89
2021-02-14 04:00:00 9.7 13 Oeste 17 Oeste 0 -- -- 93
2021-02-14 03:00:00 8.7 11 Sudoeste 13 Oeste 0 -- -- 95
2021-02-14 02:00:00 8.4 7 Sudoeste 11 Sudoeste 0 -- -- 95
2021-02-14 01:00:00 9.7 5 Sudoeste 16 Oeste 0 -- -- 92
2021-02-14 00:00:00 10 7 Sudoeste 14 Sudoeste 0 -- -- 92
2021-02-13 23:00:00 10.3 10 Sudoeste 17 Sudoeste 0 -- -- 95
2021-02-13 22:00:00 9.9 8 Sudoeste 13 Oeste 0 -- -- 96
2021-02-13 21:00:00 9.7 5 Oeste 10 Sudoeste 0 -- -- 95
2021-02-13 20:00:00 10.7 4 Oeste 11 Oeste 0 -- -- 92
2021-02-13 19:00:00 11.5 0 Calma 6 Nordeste 0 -- -- 89
2021-02-13 18:00:00 14.1 0 Calma 10 Nordeste 0 -- -- 84
2021-02-13 17:00:00 13.7 6 Nordeste 13 Este 0 -- -- 85
2021-02-13 16:00:00 13.9 9 Nordeste 14 Nordeste 0 -- -- 81
2021-02-13 15:00:00 14.6 6 Nordeste 10 Nordeste 0 -- -- 74
2021-02-13 14:00:00 14.5 8 Nordeste 11 Nordeste 0 -- -- 71
2021-02-13 13:00:00 14.1 3 Sur 10 Este 0 -- -- 80
2021-02-13 08:00:00 9 10 Oeste 16 Sudoeste 0 -- -- 96
2021-02-13 07:00:00 8.5 10 Oeste 15 Oeste 0 -- -- 98
2021-02-13 06:00:00 8.2 4 Oeste 17 Oeste 0 -- -- 98
2021-02-13 05:00:00 8.6 11 Oeste 18 Sudoeste 0 -- -- 100
2021-02-13 04:00:00 8.2 10 Oeste 14 Oeste 0 -- -- 100
2021-02-13 03:00:00 7.4 7 Sudoeste 10 Sudoeste 0 -- -- 100
2021-02-13 02:00:00 7.8 9 Sudoeste 13 Sudoeste 0 -- -- 100
2021-02-13 01:00:00 8.2 10 Sudoeste 13 Sudoeste 0 -- -- 99
2021-02-13 00:00:00 8.5 8 Sudoeste 15 Sudoeste 0 -- -- 99
2021-02-12 23:00:00 8.6 8 Sudoeste 12 Oeste 0 -- -- 99
2021-02-12 22:00:00 8.6 7 Sudoeste 10 Sudoeste 0 -- -- 99
2021-02-12 21:00:00 8.6 4 Sudoeste 6 Sudoeste 0 -- -- 97
2021-02-12 20:00:00 9.6 3 Oeste 5 Sudoeste 0 -- -- 95
2021-02-12 19:00:00 11.2 3 Norte 10 Noroeste 0 -- -- 89
2021-02-12 18:00:00 13.6 6 Noroeste 12 Norte 0 -- -- 83
2021-02-12 17:00:00 14.4 4 Oeste 16 Noroeste 0 -- -- 80
2021-02-12 16:00:00 14.8 7 Noroeste 23 Oeste 0 -- -- 79
2021-02-12 15:00:00 15.6 7 Oeste 28 Oeste 0 -- -- 74
2021-02-12 14:00:00 15.3 14 Oeste 35 Sudoeste 0 -- -- 73
2021-02-12 13:00:00 14.3 12 Oeste 25 Oeste 0 -- -- 83
2021-02-12 12:00:00 13.2 9 Oeste 21 Sudoeste 0 -- -- 89
2021-02-12 11:00:00 12.1 10 Oeste 26 Sudoeste 0 -- -- 96
2021-02-12 10:00:00 11.2 10 Sudoeste 26 Sudoeste 2.2 -- -- 97
2021-02-12 09:00:00 11.7 9 Oeste 22 Oeste 0.2 -- -- 94
2021-02-12 08:00:00 12 9 Oeste 25 Sudoeste 0.6 -- -- 94
2021-02-12 07:00:00 12.3 11 Oeste 30 Sudoeste 1.2 -- -- 95
2021-02-12 06:00:00 12.9 7 Oeste 18 Oeste 0 -- -- 95
2021-02-12 05:00:00 12.1 8 Oeste 14 Oeste 0 -- -- 100
2021-02-12 04:00:00 11.5 6 Sudoeste 11 Oeste 0.2 -- -- 100
2021-02-12 03:00:00 11.7 6 Oeste 10 Sudoeste 2 -- -- 99
2021-02-12 02:00:00 11.6 6 Oeste 10 Oeste 3.6 -- -- 99
2021-02-12 01:00:00 11.7 5 Sudoeste 14 Oeste 3.6 -- -- 98
2021-02-12 00:00:00 11.7 8 Sudoeste 12 Sudoeste 0.2 -- -- 96
2021-02-11 23:00:00 12.4 4 Sudoeste 10 Norte 0 -- -- 91
2021-02-11 22:00:00 12.8 0 Calma 12 Noroeste 0.2 -- -- 90
2021-02-11 21:00:00 12.9 5 Nordeste 15 Este 0 -- -- 91
2021-02-11 20:00:00 12.6 4 Nordeste 13 Nordeste 0 -- -- 92
2021-02-11 19:00:00 12.3 4 Nordeste 8 Noroeste 0 -- -- 94
2021-02-11 18:00:00 12.9 3 Norte 10 Norte 0 -- -- 92
2021-02-11 17:00:00 13.5 8 Norte 10 Nordeste 0 -- -- 88
2021-02-11 16:00:00 14.8 4 Nordeste 9 Noroeste 0 -- -- 82
2021-02-11 15:00:00 14.1 5 Nordeste 8 Nordeste 0 -- -- 88
2021-02-11 14:00:00 13.8 4 Sudoeste 11 Norte 0 -- -- 95
2021-02-11 13:00:00 11.8 7 Nordeste 11 Nordeste 0.4 -- -- 96
2021-02-11 12:00:00 11.2 0 Calma 13 Oeste 0.2 -- -- 96
2021-02-11 11:00:00 10.5 0 Calma 12 Oeste 0 -- -- 97
2021-02-11 10:00:00 9.4 4 Sur 12 Oeste 0 -- -- 98
2021-02-11 09:00:00 8.6 5 Sudoeste 12 Oeste 0 -- -- 98
2021-02-11 08:00:00 8.5 6 Sudoeste 13 Sudoeste 0 -- -- 98
2021-02-11 07:00:00 9 8 Sudoeste 11 Sudoeste 0 -- -- 98
2021-02-11 06:00:00 8.9 3 Oeste 5 Sudoeste 0.8 -- -- 97
2021-02-11 05:00:00 9.1 2 Oeste 14 Sudoeste 0.2 -- -- 95
2021-02-11 04:00:00 8.8 6 Sudoeste 10 Sudoeste 0 -- -- 96
2021-02-11 03:00:00 9 4 Oeste 12 Sudoeste 0 -- -- 96
2021-02-11 02:00:00 8.3 5 Oeste 10 Oeste 0 -- -- 98
2021-02-11 01:00:00 7.3 2 Oeste 9 Este 0 -- -- 97
2021-02-11 00:00:00 8.5 2 Nordeste 7 Este 0 -- -- 97
2021-02-10 23:00:00 8.4 2 Oeste 7 Sudoeste 0 -- -- 95
2021-02-10 22:00:00 8.4 3 Oeste 6 Sudoeste 0 -- -- 95
2021-02-10 21:00:00 9 2 Oeste 7 Sudoeste 0 -- -- 92
2021-02-10 20:00:00 9.6 3 Sudoeste 5 Oeste 0 -- -- 89
2021-02-10 19:00:00 10.6 3 Sudoeste 11 Sudoeste 0 -- -- 84
2021-02-10 18:00:00 12 6 Oeste 20 Oeste 0 -- -- 77
2021-02-10 17:00:00 12.9 7 Oeste 21 Oeste 0 -- -- 75
2021-02-10 16:00:00 14.7 5 Oeste 22 Oeste 0 -- -- 67
2021-02-10 15:00:00 14.7 12 Oeste 26 Oeste 0 -- -- 62
2021-02-10 14:00:00 13.4 13 Oeste 44 Oeste 0 -- -- 62
2021-02-10 13:00:00 13.6 18 Oeste 37 Sudoeste 0 -- -- 61
2021-02-10 12:00:00 13.1 21 Oeste 40 Oeste 0 -- -- 62
2021-02-10 11:00:00 11.8 24 Sudoeste 44 Oeste 0 -- -- 64
2021-02-10 10:00:00 10.8 22 Oeste 38 Oeste 0 -- -- 68
2021-02-10 09:00:00 10 22 Oeste 45 Sudoeste 0 -- -- 71
2021-02-10 08:00:00 9.6 17 Oeste 47 Oeste 0 -- -- 70
2021-02-10 07:00:00 9.5 14 Sudoeste 29 Sudoeste 0 -- -- 75
2021-02-10 06:00:00 9.1 16 Sudoeste 30 Sudoeste 0 -- -- 81
2021-02-10 05:00:00 7.7 9 Oeste 15 Oeste 0.2 -- -- 93
2021-02-10 04:00:00 7.4 5 Oeste 13 Sudoeste 1.4 -- -- 95
2021-02-10 03:00:00 7.5 6 Sudoeste 16 Sudoeste 1.8 -- -- 92
2021-02-10 02:00:00 8.7 10 Oeste 18 Oeste 0.4 -- -- 83
2021-02-10 01:00:00 7.8 4 Oeste 9 Oeste 0 -- -- 86
2021-02-10 00:00:00 8.6 4 Sudoeste 11 Sudoeste 0 -- -- 82
2021-02-09 23:00:00 8.8 3 Oeste 6 Noroeste 0 -- -- 80
2021-02-09 22:00:00 8.9 4 Sudoeste 9 Oeste 0 -- -- 83
2021-02-09 21:00:00 9.3 5 Oeste 11 Oeste 0 -- -- 83
2021-02-09 20:00:00 9.8 4 Sudoeste 8 Sudoeste 0 -- -- 82
2021-02-09 19:00:00 10.8 2 Sudoeste 16 Sudoeste 0 -- -- 75
2021-02-09 18:00:00 12 5 Sur 24 Oeste 0 -- -- 71
2021-02-09 17:00:00 15.7 9 Oeste 27 Sudoeste 0 -- -- 44
2021-02-09 16:00:00 15.6 5 Sudeste 15 Sudoeste 0 -- -- 56
2021-02-09 15:00:00 15.8 5 Sudoeste 16 Sudoeste 0 -- -- 48
2021-02-09 14:00:00 13.9 5 Sudoeste 27 Oeste 0 -- -- 60
2021-02-09 13:00:00 12.6 10 Norte 51 Sudoeste 0 -- -- 59
2021-02-09 12:00:00 13.3 27 Sudoeste 68 Sur 0.2 -- -- 55
2021-02-09 11:00:00 9.8 16 Sudoeste 31 Sudoeste 2 -- -- 89
2021-02-09 10:00:00 9.6 8 Sur 17 Sur 0.2 -- -- 86
2021-02-09 09:00:00 10.2 10 Oeste 15 Oeste 0 -- -- 79
2021-02-09 08:00:00 8.4 9 Sudoeste 17 Sudoeste 0 -- -- 91
2021-02-09 07:00:00 8.3 9 Sudoeste 29 Este 0 -- -- 89
2021-02-09 06:00:00 11.3 20 Este 35 Este 0 -- -- 77
2021-02-09 05:00:00 10.7 19 Este 34 Este 0 -- -- 80
2021-02-09 04:00:00 9.6 10 Nordeste 14 Este 0.4 -- -- 96
2021-02-09 03:00:00 8.8 4 Oeste 19 Sudoeste 0.6 -- -- 92
2021-02-09 02:00:00 8.3 4 Sudoeste 9 Sudoeste 0 -- -- 91
2021-02-09 01:00:00 8.3 6 Sudoeste 10 Sudoeste 0 -- -- 90
2021-02-09 00:00:00 9.1 6 Oeste 11 Sudoeste 0 -- -- 88
2021-02-08 23:00:00 8.3 3 Sudoeste 8 Sudoeste 0 -- -- 94
2021-02-08 22:00:00 8.4 5 Oeste 9 Oeste 0 -- -- 94
2021-02-08 21:00:00 8.1 2 Sudoeste 7 Sudoeste 0 -- -- 94
2021-02-08 20:00:00 8.5 0 Calma 11 Oeste 0 -- -- 88
2021-02-08 19:00:00 11.1 6 Oeste 20 Norte 0 -- -- 81
2021-02-08 18:00:00 12.3 7 Noroeste 25 Oeste 0 -- -- 74
2021-02-08 17:00:00 13.6 10 Oeste 26 Oeste 0 -- -- 70
2021-02-08 16:00:00 13.2 6 Noroeste 24 Oeste 0 -- -- 74
2021-02-08 15:00:00 13.9 5 Noroeste 17 Oeste 0 -- -- 71
2021-02-08 14:00:00 15.4 6 Oeste 28 Oeste 0 -- -- 60
2021-02-08 13:00:00 15.3 4 Sudoeste 12 Oeste 0 -- -- 60
2021-02-08 12:00:00 13.4 6 Oeste 14 Sudoeste 0 -- -- 67
2021-02-08 11:00:00 11.4 7 Oeste 16 Sudoeste 0 -- -- 73
2021-02-08 10:00:00 9.1 7 Oeste 15 Oeste 0 -- -- 83
2021-02-08 09:00:00 7.8 6 Sudoeste 13 Sudoeste 0 -- -- 83
2021-02-08 08:00:00 9.2 8 Oeste 15 Sudoeste 0 -- -- 82
2021-02-08 07:00:00 8.4 6 Oeste 12 Oeste 0 -- -- 92
2021-02-08 06:00:00 8.2 4 Sudoeste 9 Sudoeste 0 -- -- 97
2021-02-08 05:00:00 8.9 6 Sudoeste 14 Sudoeste 0 -- -- 96
2021-02-08 04:00:00 9.4 7 Sudoeste 13 Oeste 0.2 -- -- 99
2021-02-08 03:00:00 8.9 7 Oeste 13 Oeste 0 -- -- 100
2021-02-08 02:00:00 8.7 2 Oeste 12 Sudoeste 0.4 -- -- 99
2021-02-08 01:00:00 8.8 5 Oeste 11 Oeste 0.4 -- -- 100
2021-02-08 00:00:00 8.4 6 Sudoeste 17 Noroeste 0.4 -- -- 99
2021-02-07 23:00:00 7.8 3 Oeste 12 Oeste 0.6 -- -- 99
2021-02-07 22:00:00 7.2 3 Oeste 8 Sudoeste 0 -- -- 99
2021-02-07 21:00:00 7.5 4 Sudoeste 10 Sudoeste 0.2 -- -- 98
2021-02-07 20:00:00 7.4 3 Oeste 7 Sudoeste 0 -- -- 97
2021-02-07 19:00:00 7.7 0 Calma 9 Oeste 0.2 -- -- 96
2021-02-07 18:00:00 7.8 4 Sudoeste 9 Este 1 -- -- 94
2021-02-07 17:00:00 8.1 4 Nordeste 11 Este 1.4 -- -- 89
2021-02-07 16:00:00 8.9 3 Norte 10 Norte 0.4 -- -- 80
2021-02-07 15:00:00 10.2 2 Norte 10 Noroeste 0 -- -- 70
2021-02-07 14:00:00 10.9 6 Oeste 12 Oeste 0 -- -- 61
2021-02-07 13:00:00 10.9 5 Oeste 13 Sudoeste 0 -- -- 62
2021-02-07 12:00:00 10 6 Sudoeste 13 Sudoeste 0 -- -- 66
2021-02-07 11:00:00 8.9 7 Sudoeste 14 Oeste 0 -- -- 70
2021-02-07 10:00:00 7.4 7 Oeste 14 Oeste 0 -- -- 76
2021-02-07 09:00:00 6.4 6 Oeste 14 Oeste 0 -- -- 79
2021-02-07 08:00:00 6 6 Sudoeste 14 Oeste 0 -- -- 81
2021-02-07 07:00:00 5.9 9 Oeste 17 Oeste 0 -- -- 81
2021-02-07 06:00:00 5.8 8 Oeste 15 Oeste 0 -- -- 82
2021-02-07 05:00:00 5.8 8 Oeste 19 Oeste 0 -- -- 84
2021-02-07 04:00:00 5.8 10 Oeste 18 Sudoeste 0 -- -- 86
2021-02-07 03:00:00 6.4 11 Oeste 17 Oeste 0 -- -- 86
2021-02-07 02:00:00 6.3 9 Oeste 17 Oeste 0 -- -- 89
2021-02-07 01:00:00 5.9 9 Oeste 18 Oeste 0 -- -- 90
2021-02-07 00:00:00 5.9 8 Oeste 16 Oeste 0 -- -- 92
2021-02-06 23:00:00 6.1 6 Oeste 18 Oeste 0.2 -- -- 93
2021-02-06 22:00:00 6.9 9 Oeste 18 Oeste 0 -- -- 94
2021-02-06 21:00:00 6.9 8 Oeste 16 Oeste 0.2 -- -- 94
2021-02-06 20:00:00 7.3 12 Oeste 18 Sudoeste 0.4 -- -- 93
2021-02-06 19:00:00 8.1 6 Sudoeste 14 Sudoeste 0.2 -- -- 92
2021-02-06 18:00:00 8.6 7 Sudoeste 12 Sudoeste 0 -- -- 90
2021-02-06 17:00:00 9 6 Oeste 10 Oeste 0 -- -- 91
2021-02-06 16:00:00 8.8 4 Sudoeste 14 Sudoeste 0.6 -- -- 94
2021-02-06 15:00:00 9.1 4 Oeste 21 Norte 1.2 -- -- 95
2021-02-06 14:00:00 9.1 4 Sudoeste 20 Noroeste 2 -- -- 96
2021-02-06 13:00:00 9.3 5 Noroeste 21 Norte 2 -- -- 95
2021-02-06 12:00:00 9.6 10 Norte 24 Norte 3.2 -- -- 98
2021-02-06 11:00:00 8.8 4 Oeste 9 Sudoeste 2 -- -- 99
2021-02-06 10:00:00 8.6 6 Oeste 13 Oeste 1.8 -- -- 99
2021-02-06 09:00:00 8.7 6 Oeste 8 Oeste 1 -- -- 98
2021-02-06 08:00:00 9 4 Sudeste 8 Este 2.2 -- -- 97
2021-02-06 07:00:00 9.2 5 Nordeste 24 Nordeste 1.4 -- -- 95
2021-02-06 06:00:00 9.8 9 Norte 26 Norte 0.2 -- -- 93
2021-02-06 05:00:00 9.9 11 Norte 30 Nordeste 0 -- -- 93
2021-02-06 04:00:00 9.8 18 Nordeste 35 Nordeste 0.2 -- -- 93
2021-02-06 03:00:00 9.8 21 Nordeste 40 Nordeste 1.2 -- -- 95
2021-02-06 02:00:00 9.9 11 Nordeste 33 Norte 0.8 -- -- 98
2021-02-06 01:00:00 10.1 14 Nordeste 39 Norte 1.4 -- -- 99
2021-02-06 00:00:00 10 14 Nordeste 40 Este 4 -- -- 100
2021-02-05 23:00:00 9.8 16 Este 39 Este 3.6 -- -- 100
2021-02-05 22:00:00 10 10 Nordeste 39 Este 1.4 -- -- 100
2021-02-05 21:00:00 10.2 17 Este 47 Este 1.8 -- -- 100
2021-02-05 20:00:00 10.3 14 Este 35 Este 1.4 -- -- 100
2021-02-05 19:00:00 10.5 11 Nordeste 39 Este 1.6 -- -- 100
2021-02-05 18:00:00 10.4 11 Este 37 Este 2.4 -- -- 100
2021-02-05 17:00:00 10.3 19 Este 36 Este 4.4 -- -- 100
2021-02-05 16:00:00 10.6 10 Nordeste 28 Nordeste 3 -- -- 100
2021-02-05 15:00:00 10.1 2 Nordeste 9 Nordeste 1.8 -- -- 100
2021-02-05 14:00:00 10.4 2 Nordeste 8 Oeste 1.4 -- -- 100
2021-02-05 13:00:00 10 5 Oeste 14 Sudoeste 1.2 -- -- 100
2021-02-05 12:00:00 9.9 9 Oeste 14 Sudoeste 2.6 -- -- 100
2021-02-05 11:00:00 9.7 6 Oeste 12 Oeste 3.8 -- -- 100
2021-02-05 10:00:00 9.8 5 Oeste 9 Oeste 2.6 -- -- 99
2021-02-05 09:00:00 9.5 5 Oeste 8 Sudoeste 0 -- -- 99
2021-02-05 08:00:00 9.5 5 Oeste 12 Oeste 0 -- -- 98
2021-02-05 07:00:00 9.1 8 Oeste 12 Oeste 0 -- -- 98
2021-02-05 06:00:00 9 4 Oeste 8 Sudoeste 0.6 -- -- 97
2021-02-05 05:00:00 9.2 2 Oeste 10 Oeste 0 -- -- 96
2021-02-05 04:00:00 8.7 6 Sudoeste 10 Sudoeste 0 -- -- 96
2021-02-05 03:00:00 8.7 6 Sudoeste 12 Oeste 0 -- -- 95
2021-02-05 02:00:00 9 8 Sudoeste 14 Oeste 0 -- -- 95
2021-02-05 01:00:00 8.9 9 Oeste 14 Oeste 0 -- -- 96
2021-02-05 00:00:00 9 9 Sudoeste 12 Oeste 0 -- -- 98
2021-02-04 23:00:00 8.5 6 Oeste 8 Sudoeste 0 -- -- 97
2021-02-04 22:00:00 9.6 3 Oeste 7 Sudoeste 0 -- -- 95
2021-02-04 21:00:00 10.1 4 Sudoeste 6 Sudoeste 0 -- -- 94
2021-02-04 20:00:00 10.5 0 Calma 3 Noroeste 0 -- -- 93
2021-02-04 19:00:00 11 3 Nordeste 10 Este 0 -- -- 89
2021-02-04 18:00:00 11.9 6 Este 10 Este 0 -- -- 87
2021-02-04 17:00:00 12.4 7 Este 17 Este 0 -- -- 87
2021-02-04 16:00:00 12.4 2 Nordeste 6 Este 0 -- -- 87
2021-02-04 15:00:00 12.7 2 Nordeste 8 Norte 0 -- -- 85
2021-02-04 14:00:00 12.7 3 Nordeste 10 Nordeste 0 -- -- 81
2021-02-04 13:00:00 12.8 3 Nordeste 6 Este 0 -- -- 81
2021-02-04 12:00:00 11.9 3 Sudoeste 9 Sudoeste 0 -- -- 83
2021-02-04 11:00:00 10.4 6 Oeste 12 Sudoeste 0 -- -- 86
2021-02-04 10:00:00 8.7 4 Oeste 11 Sudoeste 0 -- -- 90
2021-02-04 09:00:00 7 3 Sudoeste 6 Sudoeste 0 -- -- 91
2021-02-04 08:00:00 8.7 3 Oeste 17 Oeste 0 -- -- 83
2021-02-04 07:00:00 8.7 8 Sudoeste 16 Sudoeste 0 -- -- 89
2021-02-04 06:00:00 7.7 8 Sudoeste 14 Sudoeste 0 -- -- 91
2021-02-04 05:00:00 8.2 8 Sur 14 Oeste 0 -- -- 89
2021-02-04 04:00:00 8.9 6 Oeste 13 Oeste 0 -- -- 89
2021-02-04 03:00:00 8 2 Sudoeste 8 Sudoeste 0 -- -- 90
2021-02-04 02:00:00 10.9 6 Oeste 12 Oeste 0 -- -- 82
2021-02-04 01:00:00 10.9 7 Oeste 13 Oeste 0 -- -- 81
2021-02-04 00:00:00 10.4 8 Oeste 16 Oeste 0 -- -- 83
2021-02-03 23:00:00 9.9 10 Oeste 15 Oeste 0 -- -- 86
2021-02-03 22:00:00 12.2 6 Nordeste 13 Este 0 -- -- 76
2021-02-03 21:00:00 12.1 6 Nordeste 18 Este 0 -- -- 77
2021-02-03 20:00:00 12.5 10 Este 21 Este 0 -- -- 79
2021-02-03 19:00:00 12.8 8 Este 15 Este 0 -- -- 75
2021-02-03 18:00:00 13.2 8 Este 21 Este 0 -- -- 81
2021-02-03 17:00:00 13.7 10 Este 19 Este 0 -- -- 78
2021-02-03 16:00:00 14.5 7 Este 18 Este 0 -- -- 82
2021-02-03 15:00:00 15.4 6 Este 10 Este 0 -- -- 79
2021-02-03 14:00:00 14.9 6 Nordeste 12 Nordeste 0 -- -- 77
2021-02-03 13:00:00 15.4 6 Nordeste 10 Este 0 -- -- 77
2021-02-03 12:00:00 15.3 4 Nordeste 11 Nordeste 0 -- -- 80
2021-02-03 11:00:00 13.4 0 Calma 10 Sudoeste 0 -- -- 83
2021-02-03 10:00:00 11.4 2 Oeste 11 Norte 0 -- -- 91
2021-02-03 09:00:00 9.9 3 Noroeste 13 Noroeste 0 -- -- 87
2021-02-03 08:00:00 9.4 6 Sudoeste 9 Sudoeste 0 -- -- 93
2021-02-03 07:00:00 11.5 3 Oeste 12 Sudoeste 0.2 -- -- 87
2021-02-03 06:00:00 12.4 9 Sudoeste 16 Sudoeste 0 -- -- 95
2021-02-03 05:00:00 12.2 4 Noroeste 10 Oeste 0 -- -- 95
2021-02-03 04:00:00 13 3 Noroeste 18 Norte 0 -- -- 92
2021-02-03 03:00:00 13.5 4 Nordeste 18 Oeste 0 -- -- 86
2021-02-03 02:00:00 13.3 10 Oeste 18 Oeste 0 -- -- 94
2021-02-03 01:00:00 11.8 11 Oeste 15 Oeste 0 -- -- 99
2021-02-03 00:00:00 11.5 3 Oeste 12 Sudoeste 0 -- -- 99